sensor_id;sensor_type;location;lat;lon;timestamp;P1;durP1;ratioP1;P2;durP2;ratioP2
2884;SDS011;54691;48.262;11.586;2023-08-21T00:05:03;9.73;;;7.33;;
2884;SDS011;54691;48.262;11.586;2023-08-21T00:12:00;10.72;;;6.40;;
2884;SDS011;54691;48.262;11.586;2023-08-21T00:18:57;8.23;;;6.17;;
2884;SDS011;54691;48.262;11.586;2023-08-21T00:25:55;13.18;;;6.78;;
2884;SDS011;54691;48.262;11.586;2023-08-21T00:32:52;9.85;;;6.80;;
2884;SDS011;54691;48.262;11.586;2023-08-21T00:39:49;10.30;;;7.15;;
2884;SDS011;54691;48.262;11.586;2023-08-21T00:46:46;8.23;;;6.12;;
2884;SDS011;54691;48.262;11.586;2023-08-21T00:53:43;9.65;;;6.90;;
2884;SDS011;54691;48.262;11.586;2023-08-21T01:00:41;8.75;;;6.92;;
2884;SDS011;54691;48.262;11.586;2023-08-21T01:11:25;13.15;;;6.75;;
2884;SDS011;54691;48.262;11.586;2023-08-21T01:18:21;8.48;;;6.53;;
2884;SDS011;54691;48.262;11.586;2023-08-21T01:25:19;7.35;;;6.47;;
2884;SDS011;54691;48.262;11.586;2023-08-21T01:36:03;10.82;;;6.97;;
2884;SDS011;54691;48.262;11.586;2023-08-21T01:43:02;11.00;;;7.60;;
2884;SDS011;54691;48.262;11.586;2023-08-21T01:49:59;12.45;;;6.95;;
2884;SDS011;54691;48.262;11.586;2023-08-21T01:56:56;9.90;;;7.20;;
2884;SDS011;54691;48.262;11.586;2023-08-21T02:03:54;8.75;;;7.78;;
2884;SDS011;54691;48.262;11.586;2023-08-21T02:10:51;11.90;;;7.62;;
2884;SDS011;54691;48.262;11.586;2023-08-21T02:17:48;11.05;;;8.15;;
2884;SDS011;54691;48.262;11.586;2023-08-21T02:24:45;16.42;;;8.50;;
2884;SDS011;54691;48.262;11.586;2023-08-21T02:31:42;8.98;;;7.85;;
2884;SDS011;54691;48.262;11.586;2023-08-21T02:38:39;10.20;;;8.48;;
2884;SDS011;54691;48.262;11.586;2023-08-21T02:45:36;11.05;;;8.80;;
2884;SDS011;54691;48.262;11.586;2023-08-21T02:52:33;13.85;;;8.28;;
2884;SDS011;54691;48.262;11.586;2023-08-21T02:59:34;10.75;;;7.92;;
2884;SDS011;54691;48.262;11.586;2023-08-21T03:06:31;12.23;;;8.38;;
2884;SDS011;54691;48.262;11.586;2023-08-21T03:13:30;15.20;;;8.48;;
2884;SDS011;54691;48.262;11.586;2023-08-21T03:20:30;12.50;;;7.37;;
2884;SDS011;54691;48.262;11.586;2023-08-21T03:27:27;12.90;;;8.50;;
2884;SDS011;54691;48.262;11.586;2023-08-21T03:34:24;14.10;;;8.38;;
2884;SDS011;54691;48.262;11.586;2023-08-21T03:41:21;12.85;;;8.63;;
2884;SDS011;54691;48.262;11.586;2023-08-21T03:48:18;13.90;;;8.45;;
2884;SDS011;54691;48.262;11.586;2023-08-21T03:55:15;11.73;;;8.70;;
2884;SDS011;54691;48.262;11.586;2023-08-21T04:02:12;11.48;;;8.50;;
2884;SDS011;54691;48.262;11.586;2023-08-21T04:09:09;11.65;;;8.20;;
2884;SDS011;54691;48.262;11.586;2023-08-21T04:16:06;14.60;;;9.40;;
2884;SDS011;54691;48.262;11.586;2023-08-21T04:23:04;8.38;;;7.35;;
2884;SDS011;54691;48.262;11.586;2023-08-21T04:30:04;17.50;;;9.25;;
2884;SDS011;54691;48.262;11.586;2023-08-21T04:37:02;11.43;;;9.20;;
2884;SDS011;54691;48.262;11.586;2023-08-21T04:44:00;13.28;;;9.23;;
2884;SDS011;54691;48.262;11.586;2023-08-21T04:51:01;11.30;;;8.28;;
2884;SDS011;54691;48.262;11.586;2023-08-21T04:57:57;14.87;;;8.00;;
2884;SDS011;54691;48.262;11.586;2023-08-21T05:04:54;12.82;;;8.73;;
2884;SDS011;54691;48.262;11.586;2023-08-21T05:11:51;11.93;;;9.35;;
2884;SDS011;54691;48.262;11.586;2023-08-21T05:18:49;11.20;;;8.90;;
2884;SDS011;54691;48.262;11.586;2023-08-21T05:25:47;14.47;;;9.23;;
2884;SDS011;54691;48.262;11.586;2023-08-21T05:32:45;14.43;;;9.13;;
2884;SDS011;54691;48.262;11.586;2023-08-21T05:39:42;12.70;;;8.55;;
2884;SDS011;54691;48.262;11.586;2023-08-21T05:46:39;12.33;;;8.28;;
2884;SDS011;54691;48.262;11.586;2023-08-21T05:53:36;12.18;;;7.60;;
2884;SDS011;54691;48.262;11.586;2023-08-21T06:00:34;18.32;;;7.42;;
2884;SDS011;54691;48.262;11.586;2023-08-21T06:07:32;14.47;;;6.80;;
2884;SDS011;54691;48.262;11.586;2023-08-21T06:14:29;11.80;;;7.33;;
2884;SDS011;54691;48.262;11.586;2023-08-21T06:21:26;17.10;;;7.20;;
2884;SDS011;54691;48.262;11.586;2023-08-21T06:28:23;12.88;;;6.58;;
2884;SDS011;54691;48.262;11.586;2023-08-21T06:35:20;11.78;;;7.60;;
2884;SDS011;54691;48.262;11.586;2023-08-21T06:42:19;13.30;;;6.70;;
2884;SDS011;54691;48.262;11.586;2023-08-21T06:49:17;10.93;;;7.70;;
2884;SDS011;54691;48.262;11.586;2023-08-21T06:56:15;13.98;;;7.20;;
2884;SDS011;54691;48.262;11.586;2023-08-21T07:03:12;8.28;;;6.70;;
2884;SDS011;54691;48.262;11.586;2023-08-21T07:10:09;13.35;;;6.25;;
2884;SDS011;54691;48.262;11.586;2023-08-21T07:17:06;14.15;;;6.40;;
2884;SDS011;54691;48.262;11.586;2023-08-21T07:24:06;9.93;;;5.90;;
2884;SDS011;54691;48.262;11.586;2023-08-21T07:31:04;11.48;;;5.70;;
2884;SDS011;54691;48.262;11.586;2023-08-21T07:38:01;10.63;;;5.62;;
2884;SDS011;54691;48.262;11.586;2023-08-21T07:44:58;9.48;;;5.83;;
2884;SDS011;54691;48.262;11.586;2023-08-21T07:51:55;12.70;;;6.15;;
2884;SDS011;54691;48.262;11.586;2023-08-21T07:58:52;8.63;;;5.42;;
2884;SDS011;54691;48.262;11.586;2023-08-21T08:05:49;10.88;;;5.62;;
2884;SDS011;54691;48.262;11.586;2023-08-21T08:12:46;7.35;;;4.87;;
2884;SDS011;54691;48.262;11.586;2023-08-21T08:19:44;6.00;;;4.85;;
2884;SDS011;54691;48.262;11.586;2023-08-21T08:26:41;10.93;;;5.97;;
2884;SDS011;54691;48.262;11.586;2023-08-21T08:33:41;7.58;;;4.60;;
2884;SDS011;54691;48.262;11.586;2023-08-21T08:40:42;5.75;;;4.35;;
2884;SDS011;54691;48.262;11.586;2023-08-21T08:47:37;12.03;;;4.70;;
2884;SDS011;54691;48.262;11.586;2023-08-21T08:54:34;6.78;;;4.53;;
2884;SDS011;54691;48.262;11.586;2023-08-21T09:01:35;10.63;;;4.95;;
2884;SDS011;54691;48.262;11.586;2023-08-21T09:08:34;7.65;;;4.22;;
2884;SDS011;54691;48.262;11.586;2023-08-21T09:15:31;9.40;;;4.35;;
2884;SDS011;54691;48.262;11.586;2023-08-21T09:22:30;9.98;;;4.47;;
2884;SDS011;54691;48.262;11.586;2023-08-21T09:29:30;7.42;;;3.95;;
2884;SDS011;54691;48.262;11.586;2023-08-21T09:36:28;5.10;;;4.05;;
2884;SDS011;54691;48.262;11.586;2023-08-21T09:43:26;6.10;;;3.95;;
2884;SDS011;54691;48.262;11.586;2023-08-21T09:50:24;5.33;;;4.10;;
2884;SDS011;54691;48.262;11.586;2023-08-21T09:57:21;4.05;;;3.25;;
2884;SDS011;54691;48.262;11.586;2023-08-21T10:04:19;4.37;;;3.80;;
2884;SDS011;54691;48.262;11.586;2023-08-21T10:11:18;8.40;;;4.05;;
2884;SDS011;54691;48.262;11.586;2023-08-21T10:18:20;5.12;;;3.58;;
2884;SDS011;54691;48.262;11.586;2023-08-21T10:25:18;5.00;;;3.47;;
2884;SDS011;54691;48.262;11.586;2023-08-21T10:32:19;3.58;;;3.15;;
2884;SDS011;54691;48.262;11.586;2023-08-21T10:39:27;6.47;;;2.95;;
2884;SDS011;54691;48.262;11.586;2023-08-21T10:46:19;5.70;;;2.90;;
2884;SDS011;54691;48.262;11.586;2023-08-21T10:53:16;9.35;;;3.05;;
2884;SDS011;54691;48.262;11.586;2023-08-21T11:00:14;8.25;;;2.60;;
2884;SDS011;54691;48.262;11.586;2023-08-21T11:07:12;8.75;;;3.15;;
2884;SDS011;54691;48.262;11.586;2023-08-21T11:14:09;3.77;;;2.72;;
2884;SDS011;54691;48.262;11.586;2023-08-21T11:21:11;7.42;;;3.10;;
2884;SDS011;54691;48.262;11.586;2023-08-21T11:28:08;4.53;;;2.40;;
2884;SDS011;54691;48.262;11.586;2023-08-21T11:35:05;6.00;;;3.02;;
2884;SDS011;54691;48.262;11.586;2023-08-21T11:42:03;3.42;;;2.75;;
2884;SDS011;54691;48.262;11.586;2023-08-21T11:49:07;7.72;;;3.30;;
2884;SDS011;54691;48.262;11.586;2023-08-21T11:59:40;3.90;;;3.05;;
2884;SDS011;54691;48.262;11.586;2023-08-21T12:06:42;7.72;;;3.10;;
2884;SDS011;54691;48.262;11.586;2023-08-21T12:13:36;11.03;;;3.83;;
2884;SDS011;54691;48.262;11.586;2023-08-21T12:24:08;7.45;;;3.40;;
2884;SDS011;54691;48.262;11.586;2023-08-21T12:31:05;6.75;;;2.87;;
2884;SDS011;54691;48.262;11.586;2023-08-21T12:38:10;7.05;;;3.40;;
2884;SDS011;54691;48.262;11.586;2023-08-21T12:45:05;7.90;;;3.20;;
2884;SDS011;54691;48.262;11.586;2023-08-21T12:52:02;9.83;;;3.67;;
2884;SDS011;54691;48.262;11.586;2023-08-21T12:59:02;4.80;;;3.92;;
2884;SDS011;54691;48.262;11.586;2023-08-21T13:05:59;4.90;;;3.05;;
2884;SDS011;54691;48.262;11.586;2023-08-21T13:12:56;5.78;;;3.72;;
2884;SDS011;54691;48.262;11.586;2023-08-21T13:19:53;5.00;;;4.10;;
2884;SDS011;54691;48.262;11.586;2023-08-21T13:26:53;8.08;;;4.00;;
2884;SDS011;54691;48.262;11.586;2023-08-21T13:33:53;5.83;;;3.35;;
2884;SDS011;54691;48.262;11.586;2023-08-21T13:44:24;12.43;;;3.37;;
2884;SDS011;54691;48.262;11.586;2023-08-21T13:51:21;8.58;;;3.70;;
2884;SDS011;54691;48.262;11.586;2023-08-21T13:58:20;7.67;;;3.35;;
2884;SDS011;54691;48.262;11.586;2023-08-21T14:05:18;7.83;;;3.55;;
2884;SDS011;54691;48.262;11.586;2023-08-21T14:12:15;5.70;;;3.33;;
2884;SDS011;54691;48.262;11.586;2023-08-21T14:19:12;6.72;;;3.05;;
2884;SDS011;54691;48.262;11.586;2023-08-21T14:26:13;9.35;;;3.05;;
2884;SDS011;54691;48.262;11.586;2023-08-21T14:33:10;10.35;;;3.40;;
2884;SDS011;54691;48.262;11.586;2023-08-21T14:40:10;5.08;;;3.42;;
2884;SDS011;54691;48.262;11.586;2023-08-21T14:47:13;11.88;;;3.30;;
2884;SDS011;54691;48.262;11.586;2023-08-21T14:57:44;10.28;;;3.42;;
2884;SDS011;54691;48.262;11.586;2023-08-21T15:11:50;4.95;;;3.45;;
2884;SDS011;54691;48.262;11.586;2023-08-21T15:18:49;7.83;;;3.35;;
2884;SDS011;54691;48.262;11.586;2023-08-21T15:29:23;7.03;;;3.58;;
2884;SDS011;54691;48.262;11.586;2023-08-21T15:36:23;7.20;;;3.70;;
2884;SDS011;54691;48.262;11.586;2023-08-21T15:43:23;7.83;;;3.62;;
2884;SDS011;54691;48.262;11.586;2023-08-21T15:50:26;6.90;;;3.35;;
2884;SDS011;54691;48.262;11.586;2023-08-21T15:57:23;7.30;;;3.10;;
2884;SDS011;54691;48.262;11.586;2023-08-21T16:04:21;8.45;;;3.72;;
2884;SDS011;54691;48.262;11.586;2023-08-21T16:11:22;6.60;;;3.02;;
2884;SDS011;54691;48.262;11.586;2023-08-21T16:18:24;7.42;;;3.45;;
2884;SDS011;54691;48.262;11.586;2023-08-21T16:25:21;5.97;;;2.90;;
2884;SDS011;54691;48.262;11.586;2023-08-21T16:32:21;15.35;;;3.08;;
2884;SDS011;54691;48.262;11.586;2023-08-21T16:39:18;5.30;;;3.40;;
2884;SDS011;54691;48.262;11.586;2023-08-21T16:46:20;11.65;;;3.10;;
2884;SDS011;54691;48.262;11.586;2023-08-21T16:53:21;8.23;;;3.27;;
2884;SDS011;54691;48.262;11.586;2023-08-21T17:00:20;7.95;;;3.10;;
2884;SDS011;54691;48.262;11.586;2023-08-21T17:07:22;7.03;;;3.30;;
2884;SDS011;54691;48.262;11.586;2023-08-21T17:14:20;11.53;;;3.67;;
2884;SDS011;54691;48.262;11.586;2023-08-21T17:21:20;7.22;;;3.08;;
2884;SDS011;54691;48.262;11.586;2023-08-21T17:28:23;14.05;;;4.65;;
2884;SDS011;54691;48.262;11.586;2023-08-21T17:35:21;9.03;;;3.83;;
2884;SDS011;54691;48.262;11.586;2023-08-21T17:42:18;6.95;;;3.22;;
2884;SDS011;54691;48.262;11.586;2023-08-21T17:49:16;11.95;;;3.50;;
2884;SDS011;54691;48.262;11.586;2023-08-21T17:56:13;9.08;;;3.58;;
2884;SDS011;54691;48.262;11.586;2023-08-21T18:03:14;8.90;;;3.65;;
2884;SDS011;54691;48.262;11.586;2023-08-21T18:10:13;11.97;;;3.67;;
2884;SDS011;54691;48.262;11.586;2023-08-21T18:17:10;8.43;;;3.92;;
2884;SDS011;54691;48.262;11.586;2023-08-21T18:27:43;7.78;;;4.03;;
2884;SDS011;54691;48.262;11.586;2023-08-21T18:34:40;8.40;;;4.20;;
2884;SDS011;54691;48.262;11.586;2023-08-21T18:41:39;6.83;;;4.03;;
2884;SDS011;54691;48.262;11.586;2023-08-21T18:48:39;16.23;;;4.50;;
2884;SDS011;54691;48.262;11.586;2023-08-21T18:55:37;10.35;;;4.67;;
2884;SDS011;54691;48.262;11.586;2023-08-21T19:02:36;6.60;;;4.60;;
2884;SDS011;54691;48.262;11.586;2023-08-21T19:09:33;10.20;;;4.70;;
2884;SDS011;54691;48.262;11.586;2023-08-21T19:16:35;9.25;;;4.72;;
2884;SDS011;54691;48.262;11.586;2023-08-21T19:23:32;9.83;;;4.67;;
2884;SDS011;54691;48.262;11.586;2023-08-21T19:30:33;10.03;;;5.10;;
2884;SDS011;54691;48.262;11.586;2023-08-21T19:37:29;14.85;;;4.67;;
2884;SDS011;54691;48.262;11.586;2023-08-21T19:44:29;11.25;;;4.80;;
2884;SDS011;54691;48.262;11.586;2023-08-21T19:51:26;11.18;;;4.55;;
2884;SDS011;54691;48.262;11.586;2023-08-21T19:58:23;9.73;;;4.83;;
2884;SDS011;54691;48.262;11.586;2023-08-21T20:05:20;14.50;;;5.97;;
2884;SDS011;54691;48.262;11.586;2023-08-21T20:12:21;8.43;;;5.40;;
2884;SDS011;54691;48.262;11.586;2023-08-21T20:19:19;8.75;;;5.90;;
2884;SDS011;54691;48.262;11.586;2023-08-21T20:26:22;16.27;;;5.90;;
2884;SDS011;54691;48.262;11.586;2023-08-21T20:33:15;10.08;;;5.50;;
2884;SDS011;54691;48.262;11.586;2023-08-21T20:40:13;21.60;;;5.42;;
2884;SDS011;54691;48.262;11.586;2023-08-21T20:47:14;18.90;;;5.42;;
2884;SDS011;54691;48.262;11.586;2023-08-21T20:54:15;9.40;;;5.17;;
2884;SDS011;54691;48.262;11.586;2023-08-21T21:01:14;11.73;;;5.90;;
2884;SDS011;54691;48.262;11.586;2023-08-21T21:08:12;10.82;;;6.08;;
2884;SDS011;54691;48.262;11.586;2023-08-21T21:15:09;7.65;;;5.65;;
2884;SDS011;54691;48.262;11.586;2023-08-21T21:22:06;9.25;;;6.20;;
2884;SDS011;54691;48.262;11.586;2023-08-21T21:29:04;11.03;;;5.70;;
2884;SDS011;54691;48.262;11.586;2023-08-21T21:36:01;13.35;;;6.22;;
2884;SDS011;54691;48.262;11.586;2023-08-21T21:43:00;12.85;;;6.12;;
2884;SDS011;54691;48.262;11.586;2023-08-21T21:49:57;8.50;;;5.87;;
2884;SDS011;54691;48.262;11.586;2023-08-21T21:56:54;17.05;;;9.50;;
2884;SDS011;54691;48.262;11.586;2023-08-21T22:03:51;11.93;;;6.85;;
2884;SDS011;54691;48.262;11.586;2023-08-21T22:10:48;16.97;;;6.33;;
2884;SDS011;54691;48.262;11.586;2023-08-21T22:17:46;13.48;;;6.95;;
2884;SDS011;54691;48.262;11.586;2023-08-21T22:24:42;13.15;;;6.60;;
2884;SDS011;54691;48.262;11.586;2023-08-21T22:31:40;9.83;;;6.40;;
2884;SDS011;54691;48.262;11.586;2023-08-21T22:38:36;9.70;;;6.08;;
2884;SDS011;54691;48.262;11.586;2023-08-21T22:45:36;14.50;;;6.65;;
2884;SDS011;54691;48.262;11.586;2023-08-21T22:52:32;8.43;;;6.10;;
2884;SDS011;54691;48.262;11.586;2023-08-21T22:59:31;12.43;;;6.70;;
2884;SDS011;54691;48.262;11.586;2023-08-21T23:06:28;12.73;;;7.37;;
2884;SDS011;54691;48.262;11.586;2023-08-21T23:13:25;12.03;;;7.45;;
2884;SDS011;54691;48.262;11.586;2023-08-21T23:20:22;9.83;;;6.80;;
2884;SDS011;54691;48.262;11.586;2023-08-21T23:27:22;18.02;;;8.33;;
2884;SDS011;54691;48.262;11.586;2023-08-21T23:34:21;14.98;;;8.23;;
2884;SDS011;54691;48.262;11.586;2023-08-21T23:41:18;11.88;;;6.92;;
2884;SDS011;54691;48.262;11.586;2023-08-21T23:48:16;9.13;;;6.85;;
2884;SDS011;54691;48.262;11.586;2023-08-21T23:55:13;11.48;;;7.30;;
